sensor_id;sensor_type;location;lat;lon;timestamp;temperature;humidity
20911;DHT22;10615;42.702;23.314;2022-09-16T00:00:51;21.30;61.90
20911;DHT22;10615;42.702;23.314;2022-09-16T00:01:52;21.30;62.10
20911;DHT22;10615;42.702;23.314;2022-09-16T00:02:53;21.30;62.10
20911;DHT22;10615;42.702;23.314;2022-09-16T00:03:54;21.30;62.20
20911;DHT22;10615;42.702;23.314;2022-09-16T00:04:55;21.30;62.10
20911;DHT22;10615;42.702;23.314;2022-09-16T00:05:56;21.30;62.10
20911;DHT22;10615;42.702;23.314;2022-09-16T00:06:56;21.30;62.30
20911;DHT22;10615;42.702;23.314;2022-09-16T00:07:57;21.30;62.50
20911;DHT22;10615;42.702;23.314;2022-09-16T00:08:58;21.30;62.50
20911;DHT22;10615;42.702;23.314;2022-09-16T00:10:00;21.30;62.50
20911;DHT22;10615;42.702;23.314;2022-09-16T00:11:01;21.30;62.40
20911;DHT22;10615;42.702;23.314;2022-09-16T00:12:01;21.30;62.40
20911;DHT22;10615;42.702;23.314;2022-09-16T00:13:02;21.30;62.40
20911;DHT22;10615;42.702;23.314;2022-09-16T00:14:03;21.30;62.40
20911;DHT22;10615;42.702;23.314;2022-09-16T00:15:04;21.30;62.40
20911;DHT22;10615;42.702;23.314;2022-09-16T00:16:09;21.20;62.40
20911;DHT22;10615;42.702;23.314;2022-09-16T00:17:10;21.20;62.50
20911;DHT22;10615;42.702;23.314;2022-09-16T00:18:10;21.20;62.60
20911;DHT22;10615;42.702;23.314;2022-09-16T00:19:11;21.20;62.60
20911;DHT22;10615;42.702;23.314;2022-09-16T00:20:12;21.20;62.70
20911;DHT22;10615;42.702;23.314;2022-09-16T00:21:13;21.20;62.50
20911;DHT22;10615;42.702;23.314;2022-09-16T00:22:13;21.20;62.60
20911;DHT22;10615;42.702;23.314;2022-09-16T00:23:14;21.20;62.70
20911;DHT22;10615;42.702;23.314;2022-09-16T00:24:15;21.10;62.70
20911;DHT22;10615;42.702;23.314;2022-09-16T00:25:15;21.10;62.80
20911;DHT22;10615;42.702;23.314;2022-09-16T00:26:16;21.20;62.90
20911;DHT22;10615;42.702;23.314;2022-09-16T00:27:17;21.10;63.10
20911;DHT22;10615;42.702;23.314;2022-09-16T00:28:18;21.10;63.20
20911;DHT22;10615;42.702;23.314;2022-09-16T00:29:19;21.10;63.20
20911;DHT22;10615;42.702;23.314;2022-09-16T00:30:20;21.10;63.20
20911;DHT22;10615;42.702;23.314;2022-09-16T00:31:20;21.10;63.20
20911;DHT22;10615;42.702;23.314;2022-09-16T00:32:21;21.10;63.30
20911;DHT22;10615;42.702;23.314;2022-09-16T00:33:23;21.10;63.40
20911;DHT22;10615;42.702;23.314;2022-09-16T00:34:23;21.10;63.40
20911;DHT22;10615;42.702;23.314;2022-09-16T00:35:24;21.10;63.40
20911;DHT22;10615;42.702;23.314;2022-09-16T00:36:25;21.10;63.40
20911;DHT22;10615;42.702;23.314;2022-09-16T00:37:25;21.10;63.40
20911;DHT22;10615;42.702;23.314;2022-09-16T00:38:26;21.10;63.50
20911;DHT22;10615;42.702;23.314;2022-09-16T00:39:26;21.10;63.50
20911;DHT22;10615;42.702;23.314;2022-09-16T00:40:27;21.10;63.60
20911;DHT22;10615;42.702;23.314;2022-09-16T00:41:28;21.10;63.70
20911;DHT22;10615;42.702;23.314;2022-09-16T00:42:35;21.10;63.70
20911;DHT22;10615;42.702;23.314;2022-09-16T00:44:59;21.10;64.50
20911;DHT22;10615;42.702;23.314;2022-09-16T00:46:02;21.10;63.70
20911;DHT22;10615;42.702;23.314;2022-09-16T00:47:04;21.00;63.70
20911;DHT22;10615;42.702;23.314;2022-09-16T00:48:06;21.10;63.80
20911;DHT22;10615;42.702;23.314;2022-09-16T00:49:11;21.10;63.80
20911;DHT22;10615;42.702;23.314;2022-09-16T00:51:16;21.00;63.80
20911;DHT22;10615;42.702;23.314;2022-09-16T00:52:17;21.00;63.80
20911;DHT22;10615;42.702;23.314;2022-09-16T00:53:22;21.00;63.80
20911;DHT22;10615;42.702;23.314;2022-09-16T00:54:23;21.00;63.80
20911;DHT22;10615;42.702;23.314;2022-09-16T00:55:29;21.00;63.80
20911;DHT22;10615;42.702;23.314;2022-09-16T00:56:32;21.00;63.90
20911;DHT22;10615;42.702;23.314;2022-09-16T00:57:34;21.00;63.80
20911;DHT22;10615;42.702;23.314;2022-09-16T00:58:38;21.00;63.80
20911;DHT22;10615;42.702;23.314;2022-09-16T00:59:41;21.00;63.90
20911;DHT22;10615;42.702;23.314;2022-09-16T01:00:43;21.00;64.00
20911;DHT22;10615;42.702;23.314;2022-09-16T01:01:44;21.00;63.90
20911;DHT22;10615;42.702;23.314;2022-09-16T01:02:45;21.00;63.90
20911;DHT22;10615;42.702;23.314;2022-09-16T01:03:53;21.00;64.00
20911;DHT22;10615;42.702;23.314;2022-09-16T01:04:55;21.00;64.00
20911;DHT22;10615;42.702;23.314;2022-09-16T01:05:57;21.00;64.00
20911;DHT22;10615;42.702;23.314;2022-09-16T01:06:58;21.00;64.10
20911;DHT22;10615;42.702;23.314;2022-09-16T01:07:58;21.00;64.20
20911;DHT22;10615;42.702;23.314;2022-09-16T01:08:59;20.90;64.10
20911;DHT22;10615;42.702;23.314;2022-09-16T01:09:59;20.90;64.20
20911;DHT22;10615;42.702;23.314;2022-09-16T01:11:00;20.90;64.30
20911;DHT22;10615;42.702;23.314;2022-09-16T01:12:01;20.90;64.40
20911;DHT22;10615;42.702;23.314;2022-09-16T01:13:03;20.90;64.50
20911;DHT22;10615;42.702;23.314;2022-09-16T01:14:04;20.80;64.40
20911;DHT22;10615;42.702;23.314;2022-09-16T01:15:25;20.80;64.50
20911;DHT22;10615;42.702;23.314;2022-09-16T01:16:35;20.80;64.70
20911;DHT22;10615;42.702;23.314;2022-09-16T01:17:59;20.80;64.70
20911;DHT22;10615;42.702;23.314;2022-09-16T01:19:04;20.90;64.70
20911;DHT22;10615;42.702;23.314;2022-09-16T01:23:47;20.80;64.70
20911;DHT22;10615;42.702;23.314;2022-09-16T01:26:13;20.80;64.70
20911;DHT22;10615;42.702;23.314;2022-09-16T01:31:53;20.70;64.90
20911;DHT22;10615;42.702;23.314;2022-09-16T01:33:03;20.70;64.90
20911;DHT22;10615;42.702;23.314;2022-09-16T01:34:25;20.70;65.00
20911;DHT22;10615;42.702;23.314;2022-09-16T01:40:25;20.70;65.30
20911;DHT22;10615;42.702;23.314;2022-09-16T01:43:56;20.70;65.60
20911;DHT22;10615;42.702;23.314;2022-09-16T01:44:59;20.60;65.70
20911;DHT22;10615;42.702;23.314;2022-09-16T01:48:33;20.50;66.00
20911;DHT22;10615;42.702;23.314;2022-09-16T01:49:45;20.60;66.10
20911;DHT22;10615;42.702;23.314;2022-09-16T01:54:07;20.60;65.90
20911;DHT22;10615;42.702;23.314;2022-09-16T01:55:22;20.70;65.90
20911;DHT22;10615;42.702;23.314;2022-09-16T01:57:33;20.70;65.80
20911;DHT22;10615;42.702;23.314;2022-09-16T01:59:39;20.70;65.90
20911;DHT22;10615;42.702;23.314;2022-09-16T02:00:43;20.70;65.90
20911;DHT22;10615;42.702;23.314;2022-09-16T02:02:01;20.70;65.90
20911;DHT22;10615;42.702;23.314;2022-09-16T02:03:07;20.70;65.90
20911;DHT22;10615;42.702;23.314;2022-09-16T02:04:43;20.70;65.90
20911;DHT22;10615;42.702;23.314;2022-09-16T02:05:47;20.60;66.10
20911;DHT22;10615;42.702;23.314;2022-09-16T02:06:49;20.60;66.40
20911;DHT22;10615;42.702;23.314;2022-09-16T02:07:52;20.50;66.60
20911;DHT22;10615;42.702;23.314;2022-09-16T02:08:57;20.50;66.80
20911;DHT22;10615;42.702;23.314;2022-09-16T02:10:05;20.40;66.90
20911;DHT22;10615;42.702;23.314;2022-09-16T02:11:08;20.40;67.00
20911;DHT22;10615;42.702;23.314;2022-09-16T02:12:13;20.40;67.20
20911;DHT22;10615;42.702;23.314;2022-09-16T02:13:23;20.40;67.40
20911;DHT22;10615;42.702;23.314;2022-09-16T02:14:28;20.30;67.50
20911;DHT22;10615;42.702;23.314;2022-09-16T02:15:32;20.30;67.50
20911;DHT22;10615;42.702;23.314;2022-09-16T02:17:06;20.30;67.70
20911;DHT22;10615;42.702;23.314;2022-09-16T02:18:09;20.30;67.80
20911;DHT22;10615;42.702;23.314;2022-09-16T02:19:12;20.30;67.80
20911;DHT22;10615;42.702;23.314;2022-09-16T02:20:16;20.30;68.90
20911;DHT22;10615;42.702;23.314;2022-09-16T02:21:16;20.30;68.00
20911;DHT22;10615;42.702;23.314;2022-09-16T02:22:19;20.30;68.00
20911;DHT22;10615;42.702;23.314;2022-09-16T02:23:24;20.40;67.80
20911;DHT22;10615;42.702;23.314;2022-09-16T02:24:26;20.40;67.80
20911;DHT22;10615;42.702;23.314;2022-09-16T02:25:28;20.40;67.80
20911;DHT22;10615;42.702;23.314;2022-09-16T02:26:32;20.40;67.70
20911;DHT22;10615;42.702;23.314;2022-09-16T02:27:34;20.40;67.60
20911;DHT22;10615;42.702;23.314;2022-09-16T02:28:38;20.40;67.60
20911;DHT22;10615;42.702;23.314;2022-09-16T02:29:42;20.50;67.60
20911;DHT22;10615;42.702;23.314;2022-09-16T02:30:46;20.50;67.60
20911;DHT22;10615;42.702;23.314;2022-09-16T02:31:48;20.50;67.50
20911;DHT22;10615;42.702;23.314;2022-09-16T02:33:03;20.60;67.30
20911;DHT22;10615;42.702;23.314;2022-09-16T02:34:13;20.50;67.20
20911;DHT22;10615;42.702;23.314;2022-09-16T02:35:15;20.50;67.20
20911;DHT22;10615;42.702;23.314;2022-09-16T02:36:18;20.50;67.20
20911;DHT22;10615;42.702;23.314;2022-09-16T02:37:24;20.50;67.20
20911;DHT22;10615;42.702;23.314;2022-09-16T02:38:29;20.50;67.30
20911;DHT22;10615;42.702;23.314;2022-09-16T02:39:33;20.40;67.20
20911;DHT22;10615;42.702;23.314;2022-09-16T02:40:37;20.50;67.20
20911;DHT22;10615;42.702;23.314;2022-09-16T02:41:41;20.50;67.30
20911;DHT22;10615;42.702;23.314;2022-09-16T02:42:41;20.50;67.40
20911;DHT22;10615;42.702;23.314;2022-09-16T02:43:42;20.50;67.40
20911;DHT22;10615;42.702;23.314;2022-09-16T02:44:44;20.40;67.50
20911;DHT22;10615;42.702;23.314;2022-09-16T02:45:57;20.40;67.80
20911;DHT22;10615;42.702;23.314;2022-09-16T02:49:37;20.40;67.80
20911;DHT22;10615;42.702;23.314;2022-09-16T02:52:53;20.40;67.80
20911;DHT22;10615;42.702;23.314;2022-09-16T02:55:00;20.40;67.80
20911;DHT22;10615;42.702;23.314;2022-09-16T02:56:23;20.40;67.80
20911;DHT22;10615;42.702;23.314;2022-09-16T02:57:26;20.40;67.80
20911;DHT22;10615;42.702;23.314;2022-09-16T02:58:28;20.40;67.80
20911;DHT22;10615;42.702;23.314;2022-09-16T02:59:29;20.40;67.80
20911;DHT22;10615;42.702;23.314;2022-09-16T03:00:30;20.40;67.80
20911;DHT22;10615;42.702;23.314;2022-09-16T03:01:33;20.50;67.80
20911;DHT22;10615;42.702;23.314;2022-09-16T03:02:35;20.50;67.80
20911;DHT22;10615;42.702;23.314;2022-09-16T03:03:36;20.50;67.90
20911;DHT22;10615;42.702;23.314;2022-09-16T03:04:36;20.50;67.90
20911;DHT22;10615;42.702;23.314;2022-09-16T03:05:48;20.50;68.00
20911;DHT22;10615;42.702;23.314;2022-09-16T03:06:57;20.60;68.10
20911;DHT22;10615;42.702;23.314;2022-09-16T03:07:58;20.60;68.10
20911;DHT22;10615;42.702;23.314;2022-09-16T03:09:03;20.60;68.10
20911;DHT22;10615;42.702;23.314;2022-09-16T03:10:04;20.60;68.00
20911;DHT22;10615;42.702;23.314;2022-09-16T03:11:11;20.60;68.00
20911;DHT22;10615;42.702;23.314;2022-09-16T03:12:25;20.60;68.00
20911;DHT22;10615;42.702;23.314;2022-09-16T03:13:44;20.60;68.00
20911;DHT22;10615;42.702;23.314;2022-09-16T03:18:03;20.70;67.90
20911;DHT22;10615;42.702;23.314;2022-09-16T03:21:58;20.70;67.90
20911;DHT22;10615;42.702;23.314;2022-09-16T03:27:33;20.80;68.10
20911;DHT22;10615;42.702;23.314;2022-09-16T03:31:05;20.80;67.90
20911;DHT22;10615;42.702;23.314;2022-09-16T03:32:09;20.90;68.00
20911;DHT22;10615;42.702;23.314;2022-09-16T03:33:18;20.90;68.00
20911;DHT22;10615;42.702;23.314;2022-09-16T03:34:33;20.90;67.90
20911;DHT22;10615;42.702;23.314;2022-09-16T03:35:39;20.90;67.90
20911;DHT22;10615;42.702;23.314;2022-09-16T03:36:52;20.90;67.90
20911;DHT22;10615;42.702;23.314;2022-09-16T03:37:54;20.90;67.80
20911;DHT22;10615;42.702;23.314;2022-09-16T03:38:56;20.90;67.80
20911;DHT22;10615;42.702;23.314;2022-09-16T03:39:58;20.90;67.80
20911;DHT22;10615;42.702;23.314;2022-09-16T03:41:00;20.90;67.80
20911;DHT22;10615;42.702;23.314;2022-09-16T03:42:02;20.90;67.90
20911;DHT22;10615;42.702;23.314;2022-09-16T03:43:12;20.90;67.90
20911;DHT22;10615;42.702;23.314;2022-09-16T03:44:14;20.90;67.90
20911;DHT22;10615;42.702;23.314;2022-09-16T03:45:16;20.90;67.80
20911;DHT22;10615;42.702;23.314;2022-09-16T03:46:17;20.90;67.90
20911;DHT22;10615;42.702;23.314;2022-09-16T03:47:17;20.90;67.90
20911;DHT22;10615;42.702;23.314;2022-09-16T03:48:18;20.90;67.80
20911;DHT22;10615;42.702;23.314;2022-09-16T03:49:18;20.90;67.90
20911;DHT22;10615;42.702;23.314;2022-09-16T03:50:19;20.90;68.10
20911;DHT22;10615;42.702;23.314;2022-09-16T03:51:19;20.80;68.40
20911;DHT22;10615;42.702;23.314;2022-09-16T03:52:20;20.70;68.70
20911;DHT22;10615;42.702;23.314;2022-09-16T03:53:21;20.70;69.00
20911;DHT22;10615;42.702;23.314;2022-09-16T03:54:21;20.70;69.30
20911;DHT22;10615;42.702;23.314;2022-09-16T03:55:22;20.70;69.50
20911;DHT22;10615;42.702;23.314;2022-09-16T03:56:23;20.70;69.70
20911;DHT22;10615;42.702;23.314;2022-09-16T03:57:24;20.60;69.80
20911;DHT22;10615;42.702;23.314;2022-09-16T03:58:25;20.60;70.00
20911;DHT22;10615;42.702;23.314;2022-09-16T03:59:26;20.60;70.10
20911;DHT22;10615;42.702;23.314;2022-09-16T04:00:27;20.50;70.20
20911;DHT22;10615;42.702;23.314;2022-09-16T04:01:28;20.50;70.30
20911;DHT22;10615;42.702;23.314;2022-09-16T04:02:29;20.50;70.40
20911;DHT22;10615;42.702;23.314;2022-09-16T04:03:29;20.50;70.40
20911;DHT22;10615;42.702;23.314;2022-09-16T04:04:31;20.40;70.60
20911;DHT22;10615;42.702;23.314;2022-09-16T04:05:31;20.40;70.60
20911;DHT22;10615;42.702;23.314;2022-09-16T04:06:32;20.40;70.50
20911;DHT22;10615;42.702;23.314;2022-09-16T04:07:32;20.40;70.50
20911;DHT22;10615;42.702;23.314;2022-09-16T04:08:33;20.40;70.50
20911;DHT22;10615;42.702;23.314;2022-09-16T04:09:33;20.40;70.60
20911;DHT22;10615;42.702;23.314;2022-09-16T04:10:36;20.40;70.60
20911;DHT22;10615;42.702;23.314;2022-09-16T04:11:37;20.40;70.70
20911;DHT22;10615;42.702;23.314;2022-09-16T04:12:37;20.40;70.70
20911;DHT22;10615;42.702;23.314;2022-09-16T04:13:38;20.40;70.70
20911;DHT22;10615;42.702;23.314;2022-09-16T04:14:39;20.40;70.90
20911;DHT22;10615;42.702;23.314;2022-09-16T04:15:39;20.40;71.00
20911;DHT22;10615;42.702;23.314;2022-09-16T04:16:40;20.40;71.20
20911;DHT22;10615;42.702;23.314;2022-09-16T04:17:40;20.30;71.30
20911;DHT22;10615;42.702;23.314;2022-09-16T04:18:41;20.30;71.40
20911;DHT22;10615;42.702;23.314;2022-09-16T04:19:42;20.30;71.30
20911;DHT22;10615;42.702;23.314;2022-09-16T04:20:43;20.30;71.30
20911;DHT22;10615;42.702;23.314;2022-09-16T04:21:43;20.30;71.10
20911;DHT22;10615;42.702;23.314;2022-09-16T04:22:44;20.30;71.00
20911;DHT22;10615;42.702;23.314;2022-09-16T04:23:44;20.20;71.00
20911;DHT22;10615;42.702;23.314;2022-09-16T04:24:45;20.20;71.00
20911;DHT22;10615;42.702;23.314;2022-09-16T04:25:52;20.20;70.90
20911;DHT22;10615;42.702;23.314;2022-09-16T04:26:52;20.20;70.90
20911;DHT22;10615;42.702;23.314;2022-09-16T04:27:53;20.20;71.00
20911;DHT22;10615;42.702;23.314;2022-09-16T04:28:53;20.20;70.90
20911;DHT22;10615;42.702;23.314;2022-09-16T04:29:54;20.20;70.70
20911;DHT22;10615;42.702;23.314;2022-09-16T04:30:59;20.20;70.50
20911;DHT22;10615;42.702;23.314;2022-09-16T04:32:00;20.30;70.60
20911;DHT22;10615;42.702;23.314;2022-09-16T04:33:00;20.30;70.50
20911;DHT22;10615;42.702;23.314;2022-09-16T04:34:01;20.30;70.40
20911;DHT22;10615;42.702;23.314;2022-09-16T04:35:02;20.30;70.40
20911;DHT22;10615;42.702;23.314;2022-09-16T04:36:04;20.40;70.40
20911;DHT22;10615;42.702;23.314;2022-09-16T04:37:05;20.30;70.40
20911;DHT22;10615;42.702;23.314;2022-09-16T04:38:05;20.50;70.40
20911;DHT22;10615;42.702;23.314;2022-09-16T04:39:06;20.50;70.30
20911;DHT22;10615;42.702;23.314;2022-09-16T04:40:07;20.60;70.20
20911;DHT22;10615;42.702;23.314;2022-09-16T04:41:08;20.60;70.00
20911;DHT22;10615;42.702;23.314;2022-09-16T04:42:09;20.70;69.80
20911;DHT22;10615;42.702;23.314;2022-09-16T04:43:12;20.80;69.50
20911;DHT22;10615;42.702;23.314;2022-09-16T04:44:12;20.90;69.20
20911;DHT22;10615;42.702;23.314;2022-09-16T04:45:14;21.00;68.90
20911;DHT22;10615;42.702;23.314;2022-09-16T04:46:15;21.10;68.70
20911;DHT22;10615;42.702;23.314;2022-09-16T04:47:15;21.10;68.60
20911;DHT22;10615;42.702;23.314;2022-09-16T04:48:16;21.20;68.50
20911;DHT22;10615;42.702;23.314;2022-09-16T04:49:17;21.20;68.40
20911;DHT22;10615;42.702;23.314;2022-09-16T04:50:17;21.40;68.30
20911;DHT22;10615;42.702;23.314;2022-09-16T04:51:18;21.50;68.00
20911;DHT22;10615;42.702;23.314;2022-09-16T04:52:20;21.60;68.60
20911;DHT22;10615;42.702;23.314;2022-09-16T04:53:20;21.80;67.30
20911;DHT22;10615;42.702;23.314;2022-09-16T04:54:21;22.00;67.00
20911;DHT22;10615;42.702;23.314;2022-09-16T04:55:22;22.20;66.60
20911;DHT22;10615;42.702;23.314;2022-09-16T04:56:24;22.30;66.00
20911;DHT22;10615;42.702;23.314;2022-09-16T04:57:24;22.30;65.60
20911;DHT22;10615;42.702;23.314;2022-09-16T04:58:25;22.40;66.10
20911;DHT22;10615;42.702;23.314;2022-09-16T04:59:25;22.60;64.90
20911;DHT22;10615;42.702;23.314;2022-09-16T05:00:26;22.80;64.60
20911;DHT22;10615;42.702;23.314;2022-09-16T05:01:28;23.00;64.10
20911;DHT22;10615;42.702;23.314;2022-09-16T05:02:29;23.40;63.60
20911;DHT22;10615;42.702;23.314;2022-09-16T05:03:30;23.70;62.80
20911;DHT22;10615;42.702;23.314;2022-09-16T05:04:31;23.80;61.90
20911;DHT22;10615;42.702;23.314;2022-09-16T05:05:31;23.90;61.10
20911;DHT22;10615;42.702;23.314;2022-09-16T05:06:33;24.10;60.80
20911;DHT22;10615;42.702;23.314;2022-09-16T05:07:34;24.40;60.40
20911;DHT22;10615;42.702;23.314;2022-09-16T05:08:34;25.00;59.90
20911;DHT22;10615;42.702;23.314;2022-09-16T05:09:35;25.70;59.10
20911;DHT22;10615;42.702;23.314;2022-09-16T05:10:36;26.20;58.00
20911;DHT22;10615;42.702;23.314;2022-09-16T05:11:38;26.60;56.80
20911;DHT22;10615;42.702;23.314;2022-09-16T05:12:39;27.10;56.00
20911;DHT22;10615;42.702;23.314;2022-09-16T05:13:40;27.60;55.10
20911;DHT22;10615;42.702;23.314;2022-09-16T05:14:40;28.00;54.10
20911;DHT22;10615;42.702;23.314;2022-09-16T05:15:41;28.40;53.10
20911;DHT22;10615;42.702;23.314;2022-09-16T05:16:42;28.70;52.40
20911;DHT22;10615;42.702;23.314;2022-09-16T05:17:42;28.90;51.70
20911;DHT22;10615;42.702;23.314;2022-09-16T05:18:44;29.40;50.90
20911;DHT22;10615;42.702;23.314;2022-09-16T05:19:45;29.90;50.30
20911;DHT22;10615;42.702;23.314;2022-09-16T05:20:46;30.50;49.50
20911;DHT22;10615;42.702;23.314;2022-09-16T05:21:47;31.10;48.60
20911;DHT22;10615;42.702;23.314;2022-09-16T05:22:48;31.60;47.70
20911;DHT22;10615;42.702;23.314;2022-09-16T05:23:50;32.10;46.90
20911;DHT22;10615;42.702;23.314;2022-09-16T05:24:51;32.60;46.00
20911;DHT22;10615;42.702;23.314;2022-09-16T05:25:52;32.70;45.20
20911;DHT22;10615;42.702;23.314;2022-09-16T05:26:52;32.50;44.50
20911;DHT22;10615;42.702;23.314;2022-09-16T05:27:53;32.70;44.30
20911;DHT22;10615;42.702;23.314;2022-09-16T05:28:53;33.10;44.10
20911;DHT22;10615;42.702;23.314;2022-09-16T05:29:54;33.60;43.40
20911;DHT22;10615;42.702;23.314;2022-09-16T05:30:55;33.90;42.60
20911;DHT22;10615;42.702;23.314;2022-09-16T05:31:55;34.50;42.00
20911;DHT22;10615;42.702;23.314;2022-09-16T05:32:57;34.70;41.10
20911;DHT22;10615;42.702;23.314;2022-09-16T05:33:59;35.10;40.40
20911;DHT22;10615;42.702;23.314;2022-09-16T05:34:59;35.40;39.90
20911;DHT22;10615;42.702;23.314;2022-09-16T05:36:18;35.40;39.40
20911;DHT22;10615;42.702;23.314;2022-09-16T05:37:18;35.80;39.00
20911;DHT22;10615;42.702;23.314;2022-09-16T05:38:19;36.30;39.20
20911;DHT22;10615;42.702;23.314;2022-09-16T05:39:20;36.40;38.00
20911;DHT22;10615;42.702;23.314;2022-09-16T05:40:20;36.30;37.70
20911;DHT22;10615;42.702;23.314;2022-09-16T05:41:22;36.10;37.30
20911;DHT22;10615;42.702;23.314;2022-09-16T05:42:22;35.70;37.10
20911;DHT22;10615;42.702;23.314;2022-09-16T05:43:23;35.20;37.10
20911;DHT22;10615;42.702;23.314;2022-09-16T05:44:24;34.60;37.40
20911;DHT22;10615;42.702;23.314;2022-09-16T05:45:25;34.70;38.10
20911;DHT22;10615;42.702;23.314;2022-09-16T05:46:26;34.70;38.20
20911;DHT22;10615;42.702;23.314;2022-09-16T05:47:26;35.10;38.20
20911;DHT22;10615;42.702;23.314;2022-09-16T05:48:27;35.50;38.00
20911;DHT22;10615;42.702;23.314;2022-09-16T05:49:28;35.90;37.50
20911;DHT22;10615;42.702;23.314;2022-09-16T05:50:28;36.30;37.00
20911;DHT22;10615;42.702;23.314;2022-09-16T05:51:29;36.50;37.30
20911;DHT22;10615;42.702;23.314;2022-09-16T05:52:30;36.50;36.30
20911;DHT22;10615;42.702;23.314;2022-09-16T05:53:32;36.70;36.30
20911;DHT22;10615;42.702;23.314;2022-09-16T05:54:33;37.20;36.00
20911;DHT22;10615;42.702;23.314;2022-09-16T05:55:33;37.80;35.70
20911;DHT22;10615;42.702;23.314;2022-09-16T05:56:34;38.30;35.20
20911;DHT22;10615;42.702;23.314;2022-09-16T05:57:34;38.50;34.50
20911;DHT22;10615;42.702;23.314;2022-09-16T05:58:35;38.40;33.90
20911;DHT22;10615;42.702;23.314;2022-09-16T05:59:36;38.20;33.50
20911;DHT22;10615;42.702;23.314;2022-09-16T06:00:36;38.30;33.40
20911;DHT22;10615;42.702;23.314;2022-09-16T06:01:37;38.70;33.30
20911;DHT22;10615;42.702;23.314;2022-09-16T06:02:37;39.10;32.90
20911;DHT22;10615;42.702;23.314;2022-09-16T06:03:39;39.40;32.40
20911;DHT22;10615;42.702;23.314;2022-09-16T06:04:39;39.50;31.90
20911;DHT22;10615;42.702;23.314;2022-09-16T06:05:40;39.70;31.40
20911;DHT22;10615;42.702;23.314;2022-09-16T06:06:44;39.80;31.10
20911;DHT22;10615;42.702;23.314;2022-09-16T06:07:44;39.90;31.00
20911;DHT22;10615;42.702;23.314;2022-09-16T06:08:45;40.10;30.70
20911;DHT22;10615;42.702;23.314;2022-09-16T06:09:45;40.10;30.30
20911;DHT22;10615;42.702;23.314;2022-09-16T06:10:46;40.10;30.00
20911;DHT22;10615;42.702;23.314;2022-09-16T06:11:48;40.10;30.00
20911;DHT22;10615;42.702;23.314;2022-09-16T06:12:49;40.20;30.00
20911;DHT22;10615;42.702;23.314;2022-09-16T06:13:56;40.20;29.90
20911;DHT22;10615;42.702;23.314;2022-09-16T06:14:57;40.40;29.80
20911;DHT22;10615;42.702;23.314;2022-09-16T06:15:57;40.50;29.50
20911;DHT22;10615;42.702;23.314;2022-09-16T06:16:58;40.30;29.00
20911;DHT22;10615;42.702;23.314;2022-09-16T06:17:58;40.00;28.90
20911;DHT22;10615;42.702;23.314;2022-09-16T06:19:00;39.70;28.80
20911;DHT22;10615;42.702;23.314;2022-09-16T06:20:00;39.30;28.80
20911;DHT22;10615;42.702;23.314;2022-09-16T06:21:02;38.80;29.00
20911;DHT22;10615;42.702;23.314;2022-09-16T06:22:03;38.30;29.30
20911;DHT22;10615;42.702;23.314;2022-09-16T06:23:03;38.10;29.60
20911;DHT22;10615;42.702;23.314;2022-09-16T06:24:04;37.80;29.80
20911;DHT22;10615;42.702;23.314;2022-09-16T06:25:08;37.60;30.00
20911;DHT22;10615;42.702;23.314;2022-09-16T06:26:13;37.30;30.50
20911;DHT22;10615;42.702;23.314;2022-09-16T06:27:14;37.40;30.80
20911;DHT22;10615;42.702;23.314;2022-09-16T06:28:15;37.60;30.90
20911;DHT22;10615;42.702;23.314;2022-09-16T06:29:16;37.20;30.70
20911;DHT22;10615;42.702;23.314;2022-09-16T06:30:16;36.70;30.70
20911;DHT22;10615;42.702;23.314;2022-09-16T06:31:21;36.10;30.80
20911;DHT22;10615;42.702;23.314;2022-09-16T06:32:22;35.70;31.40
20911;DHT22;10615;42.702;23.314;2022-09-16T06:33:23;35.50;32.10
20911;DHT22;10615;42.702;23.314;2022-09-16T06:34:24;35.20;32.60
20911;DHT22;10615;42.702;23.314;2022-09-16T06:35:25;35.10;33.20
20911;DHT22;10615;42.702;23.314;2022-09-16T06:36:30;34.80;33.40
20911;DHT22;10615;42.702;23.314;2022-09-16T06:37:31;34.90;33.90
20911;DHT22;10615;42.702;23.314;2022-09-16T06:38:32;35.60;34.10
20911;DHT22;10615;42.702;23.314;2022-09-16T06:39:32;35.90;33.70
20911;DHT22;10615;42.702;23.314;2022-09-16T06:40:33;35.90;33.30
20911;DHT22;10615;42.702;23.314;2022-09-16T06:41:33;35.60;32.90
20911;DHT22;10615;42.702;23.314;2022-09-16T06:42:34;35.90;32.90
20911;DHT22;10615;42.702;23.314;2022-09-16T06:43:35;35.90;32.60
20911;DHT22;10615;42.702;23.314;2022-09-16T06:44:36;35.90;32.50
20911;DHT22;10615;42.702;23.314;2022-09-16T06:45:36;35.90;32.40
20911;DHT22;10615;42.702;23.314;2022-09-16T06:46:37;35.90;32.40
20911;DHT22;10615;42.702;23.314;2022-09-16T06:47:38;36.50;32.60
20911;DHT22;10615;42.702;23.314;2022-09-16T06:48:39;37.70;32.40
20911;DHT22;10615;42.702;23.314;2022-09-16T06:49:42;40.00;30.00
20911;DHT22;10615;42.702;23.314;2022-09-16T06:50:43;40.10;30.40
20911;DHT22;10615;42.702;23.314;2022-09-16T06:51:44;41.30;29.60
20911;DHT22;10615;42.702;23.314;2022-09-16T06:52:48;42.50;28.80
20911;DHT22;10615;42.702;23.314;2022-09-16T06:53:49;43.60;27.90
20911;DHT22;10615;42.702;23.314;2022-09-16T06:54:50;44.60;26.90
20911;DHT22;10615;42.702;23.314;2022-09-16T06:55:51;45.30;25.80
20911;DHT22;10615;42.702;23.314;2022-09-16T06:56:52;45.80;24.90
20911;DHT22;10615;42.702;23.314;2022-09-16T06:57:52;46.40;24.40
20911;DHT22;10615;42.702;23.314;2022-09-16T06:58:53;47.00;23.90
20911;DHT22;10615;42.702;23.314;2022-09-16T06:59:55;47.50;23.40
20911;DHT22;10615;42.702;23.314;2022-09-16T07:00:55;48.10;23.30
20911;DHT22;10615;42.702;23.314;2022-09-16T07:01:56;48.50;22.80
20911;DHT22;10615;42.702;23.314;2022-09-16T07:02:56;48.90;22.40
20911;DHT22;10615;42.702;23.314;2022-09-16T07:03:57;49.10;22.00
20911;DHT22;10615;42.702;23.314;2022-09-16T07:04:58;49.50;21.90
20911;DHT22;10615;42.702;23.314;2022-09-16T07:06:00;50.10;22.20
20911;DHT22;10615;42.702;23.314;2022-09-16T07:07:01;51.00;21.30
20911;DHT22;10615;42.702;23.314;2022-09-16T07:08:02;51.60;21.00
20911;DHT22;10615;42.702;23.314;2022-09-16T07:09:02;51.70;20.60
20911;DHT22;10615;42.702;23.314;2022-09-16T07:10:03;51.70;20.30
20911;DHT22;10615;42.702;23.314;2022-09-16T07:11:09;51.80;20.00
20911;DHT22;10615;42.702;23.314;2022-09-16T07:12:10;51.90;19.70
20911;DHT22;10615;42.702;23.314;2022-09-16T07:13:10;52.20;19.80
20911;DHT22;10615;42.702;23.314;2022-09-16T07:14:11;52.50;19.60
20911;DHT22;10615;42.702;23.314;2022-09-16T07:15:11;52.50;19.30